createdAt,value
2022-12-27T00:02:24.996Z,8.85
2022-12-27T00:04:57.523Z,10.38
2022-12-27T00:07:30.402Z,10.03
2022-12-27T00:10:03.622Z,9.88
2022-12-27T00:12:36.133Z,9.88
2022-12-27T00:15:09.801Z,9.90
2022-12-27T00:17:42.859Z,9.48
2022-12-27T00:20:15.288Z,10.30
2022-12-27T00:22:47.955Z,9.68
2022-12-27T00:25:20.769Z,9.73
2022-12-27T00:27:53.232Z,8.85
2022-12-27T00:30:25.884Z,9.88
2022-12-27T00:32:58.449Z,10.05
2022-12-27T00:35:30.880Z,10.20
2022-12-27T00:38:03.838Z,8.45
2022-12-27T00:40:38.242Z,9.60
2022-12-27T00:43:10.820Z,9.25
2022-12-27T00:45:43.427Z,9.25
2022-12-27T00:48:16.175Z,8.85
2022-12-27T00:50:49.301Z,9.48
2022-12-27T00:53:22.206Z,8.30
2022-12-27T00:55:55.652Z,9.63
2022-12-27T00:58:28.820Z,10.43
2022-12-27T01:01:15.025Z,9.18
2022-12-27T01:03:47.721Z,9.23
2022-12-27T01:06:22.795Z,8.88
2022-12-27T01:08:55.322Z,8.95
2022-12-27T01:11:28.777Z,9.63
2022-12-27T01:14:03.668Z,9.58
2022-12-27T01:16:37.966Z,9.03
2022-12-27T01:19:10.742Z,9.93
2022-12-27T01:21:43.352Z,9.95
2022-12-27T01:24:15.770Z,9.63
2022-12-27T01:26:48.142Z,9.53
2022-12-27T01:29:20.574Z,9.35
2022-12-27T01:31:53.241Z,10.15
2022-12-27T01:34:25.678Z,9.65
2022-12-27T01:36:59.123Z,9.48
2022-12-27T01:39:32.164Z,10.25
2022-12-27T01:42:22.850Z,9.83
2022-12-27T01:44:58.088Z,9.95
2022-12-27T01:47:52.929Z,9.93
2022-12-27T01:50:48.474Z,9.98
2022-12-27T01:53:33.730Z,10.85
2022-12-27T01:56:19.874Z,10.53
2022-12-27T01:58:59.925Z,9.20
2022-12-27T02:01:39.725Z,10.00
2022-12-27T02:04:23.176Z,10.32
2022-12-27T02:06:56.277Z,10.60
2022-12-27T02:09:42.618Z,9.10
2022-12-27T02:12:15.081Z,10.32
2022-12-27T02:14:49.443Z,10.70
2022-12-27T02:17:27.471Z,9.25
2022-12-27T02:20:19.093Z,9.15
2022-12-27T02:23:49.175Z,9.03
2022-12-27T02:26:32.316Z,9.50
2022-12-27T02:29:28.871Z,8.88
2022-12-27T02:32:08.317Z,9.65
2022-12-27T02:34:51.790Z,9.50
2022-12-27T02:37:26.112Z,9.53
2022-12-27T02:40:01.266Z,9.20
2022-12-27T02:42:51.586Z,9.28
2022-12-27T02:45:41.691Z,8.25
2022-12-27T02:48:32.838Z,9.73
2022-12-27T02:51:30.901Z,8.53
2022-12-27T02:54:29.499Z,8.73
2022-12-27T02:57:18.263Z,8.73
2022-12-27T03:00:25.631Z,9.75
2022-12-27T03:03:38.348Z,9.45
2022-12-27T03:06:50.536Z,9.70
2022-12-27T03:10:04.071Z,9.38
2022-12-27T03:13:09.568Z,10.63
2022-12-27T03:16:27.008Z,9.73
2022-12-27T03:19:04.385Z,9.60
2022-12-27T03:22:05.624Z,10.90
2022-12-27T03:24:57.295Z,9.38
2022-12-27T03:27:34.586Z,9.83
2022-12-27T03:30:27.932Z,10.28
2022-12-27T03:33:15.953Z,9.95
2022-12-27T03:36:25.796Z,10.58
2022-12-27T03:39:19.917Z,10.98
2022-12-27T03:42:26.858Z,10.50
2022-12-27T03:44:59.851Z,11.40
2022-12-27T03:47:50.509Z,11.88
2022-12-27T03:50:29.318Z,11.38
2022-12-27T03:53:11.596Z,12.00
2022-12-27T03:55:44.334Z,11.40
2022-12-27T03:58:16.893Z,11.95
2022-12-27T04:00:50.351Z,12.50
2022-12-27T04:03:22.832Z,12.28
2022-12-27T04:05:56.373Z,11.40
2022-12-27T04:08:46.798Z,12.40
2022-12-27T04:11:37.299Z,12.15
2022-12-27T04:14:27.520Z,11.90
2022-12-27T04:17:18.243Z,11.90
2022-12-27T04:20:08.631Z,12.37
2022-12-27T04:22:59.649Z,12.55
2022-12-27T04:25:49.790Z,12.28
2022-12-27T04:28:41.114Z,12.33
2022-12-27T04:31:31.658Z,11.43
2022-12-27T04:34:22.559Z,12.63
2022-12-27T04:36:54.977Z,13.35
2022-12-27T04:39:27.317Z,13.65
2022-12-27T04:42:17.923Z,12.70
2022-12-27T04:45:14.866Z,12.35
2022-12-27T04:48:00.748Z,12.70
2022-12-27T04:50:51.960Z,12.78
2022-12-27T04:53:42.039Z,12.47
2022-12-27T04:56:14.303Z,12.30
2022-12-27T04:59:04.690Z,12.58
2022-12-27T05:01:55.552Z,12.23
2022-12-27T05:04:28.388Z,12.20
2022-12-27T05:07:02.561Z,13.28
2022-12-27T05:09:52.709Z,12.68
2022-12-27T05:12:43.068Z,14.07
2022-12-27T05:15:16.241Z,13.80
2022-12-27T05:17:48.531Z,14.55
2022-12-27T05:20:20.956Z,14.10
2022-12-27T05:23:11.073Z,14.00
2022-12-27T05:25:44.627Z,14.18
2022-12-27T05:28:17.672Z,15.63
2022-12-27T05:30:50.087Z,14.73
2022-12-27T05:33:22.461Z,15.72
2022-12-27T05:35:54.998Z,16.23
2022-12-27T05:38:27.563Z,16.93
2022-12-27T05:41:03.975Z,17.00
2022-12-27T05:43:36.533Z,15.85
2022-12-27T05:46:18.120Z,16.23
2022-12-27T05:48:51.103Z,18.40
2022-12-27T05:51:23.728Z,18.52
2022-12-27T05:53:56.208Z,19.00
2022-12-27T05:56:29.111Z,19.75
2022-12-27T05:59:01.847Z,18.48
2022-12-27T06:01:36.042Z,18.15
2022-12-27T06:04:08.530Z,19.80
2022-12-27T06:06:40.962Z,20.40
2022-12-27T06:09:13.555Z,20.72
2022-12-27T06:11:46.016Z,20.30
2022-12-27T06:14:18.295Z,19.57
2022-12-27T06:16:51.124Z,21.23
2022-12-27T06:19:23.705Z,22.20
2022-12-27T06:21:56.156Z,22.02
2022-12-27T06:24:28.654Z,22.35
2022-12-27T06:27:01.089Z,20.68
2022-12-27T06:29:34.469Z,22.45
2022-12-27T06:32:07.420Z,22.27
2022-12-27T06:34:39.755Z,21.85
2022-12-27T06:37:12.566Z,21.77
2022-12-27T06:39:45.189Z,21.95
2022-12-27T06:42:17.941Z,23.35
2022-12-27T06:44:51.211Z,22.80
2022-12-27T06:47:23.639Z,23.52
2022-12-27T06:49:56.236Z,23.07
2022-12-27T06:52:28.988Z,22.45
2022-12-27T06:55:01.549Z,22.27
2022-12-27T06:57:34.204Z,22.77
2022-12-27T07:00:08.886Z,21.87
2022-12-27T07:02:42.200Z,25.15
2022-12-27T07:05:15.020Z,24.63
2022-12-27T07:07:48.086Z,24.07
2022-12-27T07:10:20.543Z,24.07
2022-12-27T07:12:52.980Z,25.50
2022-12-27T07:15:25.720Z,24.35
2022-12-27T07:17:58.226Z,23.05
2022-12-27T07:20:30.877Z,25.08
2022-12-27T07:23:03.350Z,25.15
2022-12-27T07:25:36.024Z,23.50
2022-12-27T07:28:08.544Z,24.87
2022-12-27T07:30:44.147Z,25.75
2022-12-27T07:33:16.934Z,25.80
2022-12-27T07:35:49.253Z,24.75
2022-12-27T07:38:22.240Z,25.65
2022-12-27T07:40:55.091Z,25.55
2022-12-27T07:43:29.946Z,26.23
2022-12-27T07:46:12.328Z,27.02
2022-12-27T07:48:44.801Z,25.23
2022-12-27T07:51:18.192Z,26.23
2022-12-27T07:53:50.925Z,26.40
2022-12-27T07:56:27.005Z,24.98
2022-12-27T07:59:01.012Z,25.70
2022-12-27T08:01:54.707Z,26.50
2022-12-27T08:04:27.532Z,27.48
2022-12-27T08:07:18.784Z,26.48
2022-12-27T08:09:51.413Z,27.32
2022-12-27T08:12:25.816Z,26.53
2022-12-27T08:14:58.337Z,24.27
2022-12-27T08:17:31.087Z,27.05
2022-12-27T08:20:04.028Z,27.05
2022-12-27T08:22:37.002Z,28.12
2022-12-27T08:25:11.286Z,27.70
2022-12-27T08:27:43.712Z,28.35
2022-12-27T08:30:16.652Z,27.22
2022-12-27T08:32:51.168Z,27.70
2022-12-27T08:35:52.105Z,27.32
2022-12-27T08:38:04.130Z,27.48
2022-12-27T08:40:42.301Z,25.90
2022-12-27T08:43:15.572Z,26.00
2022-12-27T08:45:48.276Z,24.98
2022-12-27T08:48:20.955Z,26.37
2022-12-27T08:50:53.451Z,24.43
2022-12-27T08:53:26.761Z,25.60
2022-12-27T08:55:59.307Z,26.27
2022-12-27T08:58:32.259Z,27.00
2022-12-27T09:01:11.225Z,25.80
2022-12-27T09:03:43.953Z,24.37
2022-12-27T09:06:21.492Z,26.68
2022-12-27T09:08:54.820Z,28.05
2022-12-27T09:11:33.470Z,28.00
2022-12-27T09:14:06.566Z,27.90
2022-12-27T09:16:40.987Z,25.08
2022-12-27T09:19:13.432Z,27.00
2022-12-27T09:21:46.274Z,27.60
2022-12-27T09:24:18.746Z,25.88
2022-12-27T09:26:51.341Z,24.80
2022-12-27T09:29:23.688Z,24.87
2022-12-27T09:31:56.130Z,26.55
2022-12-27T09:34:28.451Z,23.73
2022-12-27T09:37:02.339Z,24.87
2022-12-27T09:39:34.778Z,24.02
2022-12-27T09:45:20.451Z,22.32
2022-12-27T09:48:02.723Z,23.18
2022-12-27T09:50:56.716Z,22.85
2022-12-27T09:53:53.442Z,23.67
2022-12-27T09:56:54.525Z,24.75
2022-12-27T09:59:19.201Z,25.57
2022-12-27T10:01:51.819Z,25.97
2022-12-27T10:04:39.312Z,26.87
2022-12-27T10:09:57.372Z,25.75
2022-12-27T10:13:00.343Z,24.43
2022-12-27T10:15:55.936Z,26.45
2022-12-27T10:19:23.034Z,27.67
2022-12-27T10:22:00.514Z,26.57
2022-12-27T10:24:58.267Z,26.70
2022-12-27T13:37:48.728Z,22.75
2022-12-27T13:40:37.440Z,22.90
2022-12-27T13:43:51.255Z,23.38
2022-12-27T13:46:52.434Z,22.65
2022-12-27T13:49:52.427Z,23.95
2022-12-27T13:53:04.459Z,22.95
2022-12-27T13:55:50.899Z,22.15
2022-12-27T13:58:40.174Z,22.55
2022-12-27T14:01:53.735Z,23.22
2022-12-27T14:04:59.522Z,21.48
2022-12-27T14:08:21.771Z,22.45
2022-12-27T14:11:00.886Z,21.37
2022-12-27T14:17:42.970Z,22.15
2022-12-27T14:20:35.103Z,20.37
2022-12-27T14:23:36.575Z,17.42
2022-12-27T14:26:42.212Z,17.25
2022-12-27T14:29:48.462Z,14.15
2022-12-27T14:32:48.065Z,15.20
2022-12-27T14:35:28.308Z,11.40
2022-12-27T14:38:27.727Z,10.10
2022-12-27T14:41:41.465Z,8.23
2022-12-27T14:44:30.938Z,6.78
2022-12-27T14:47:37.182Z,4.92
2022-12-27T14:50:44.733Z,6.10
2022-12-27T14:53:37.236Z,5.58
2022-12-27T14:56:33.632Z,5.22
2022-12-27T14:59:25.638Z,6.30
2022-12-27T15:02:45.668Z,5.87
2022-12-27T15:06:02.390Z,5.55
2022-12-27T15:08:54.996Z,5.95
2022-12-27T15:11:46.869Z,4.37
2022-12-27T15:14:48.089Z,5.12
2022-12-27T15:17:49.828Z,5.33
2022-12-27T15:20:38.738Z,3.83
2022-12-27T15:23:30.943Z,3.87
2022-12-27T15:26:44.694Z,4.58
2022-12-27T15:30:06.432Z,3.87
2022-12-27T15:33:03.040Z,3.65
2022-12-27T15:35:58.661Z,4.17
2022-12-27T15:38:54.112Z,3.67
2022-12-27T15:41:37.910Z,3.20
2022-12-27T15:44:38.882Z,3.77
2022-12-27T15:47:35.846Z,3.47
2022-12-27T15:50:30.433Z,3.70
2022-12-27T15:53:32.080Z,3.10
2022-12-27T15:56:38.506Z,2.70
2022-12-27T15:59:36.972Z,2.27
2022-12-27T16:02:34.119Z,1.90
2022-12-27T16:05:26.947Z,1.70
2022-12-27T16:08:07.283Z,1.20
2022-12-27T16:10:48.035Z,1.20
2022-12-27T16:13:39.345Z,1.25
2022-12-27T16:16:10.766Z,1.55
2022-12-27T16:19:02.763Z,2.33
2022-12-27T16:21:42.512Z,2.08
2022-12-27T16:24:35.926Z,1.65
2022-12-27T16:27:08.418Z,1.50
2022-12-27T16:29:44.687Z,1.50
2022-12-27T16:32:21.487Z,1.95
2022-12-27T16:34:59.488Z,1.50
2022-12-27T16:37:45.189Z,1.57
2022-12-27T16:40:41.505Z,1.30
2022-12-27T16:43:21.724Z,2.20
2022-12-27T16:46:02.099Z,1.60
2022-12-27T16:49:05.845Z,1.30
2022-12-27T16:51:49.278Z,1.10
2022-12-27T16:54:58.317Z,1.27
2022-12-27T16:57:43.493Z,1.60
2022-12-27T17:00:46.143Z,1.02
2022-12-27T17:03:41.971Z,1.30
2022-12-27T17:06:32.018Z,1.02
2022-12-27T17:09:16.797Z,1.25
2022-12-27T17:11:57.041Z,1.20
2022-12-27T17:14:35.928Z,1.47
2022-12-27T17:17:23.218Z,1.22
2022-12-27T17:20:01.969Z,1.87
2022-12-27T17:22:36.145Z,1.60
2022-12-27T17:25:08.946Z,1.22
2022-12-27T17:27:49.609Z,1.32
2022-12-27T17:30:45.884Z,2.12
2022-12-27T17:33:58.527Z,1.95
2022-12-27T17:37:04.056Z,1.90
2022-12-27T17:39:55.724Z,2.30
2022-12-27T17:43:17.931Z,1.52
2022-12-27T17:46:31.512Z,1.70
2022-12-27T17:49:04.918Z,1.50
2022-12-27T17:54:43.900Z,1.90
2022-12-27T17:57:55.821Z,2.85
2022-12-27T18:00:32.725Z,2.77
2022-12-27T18:03:10.050Z,2.15
2022-12-27T18:05:43.750Z,2.80
2022-12-27T18:08:29.671Z,2.70
2022-12-27T18:11:04.770Z,2.70
2022-12-27T18:16:23.247Z,2.70
2022-12-27T18:18:57.792Z,2.27
2022-12-27T18:21:32.725Z,3.22
2022-12-27T18:24:08.128Z,2.25
2022-12-27T18:26:42.317Z,2.75
2022-12-27T18:29:14.818Z,2.37
2022-12-27T18:31:50.109Z,2.75
2022-12-27T18:34:36.202Z,2.60
2022-12-27T18:37:14.435Z,2.37
2022-12-27T18:40:00.575Z,2.90
2022-12-27T18:42:40.512Z,2.80
2022-12-27T18:45:30.927Z,2.58
2022-12-27T18:48:04.732Z,2.92
2022-12-27T18:50:38.260Z,2.60
2022-12-27T18:53:38.112Z,2.62
2022-12-27T18:56:26.628Z,2.83
2022-12-27T18:59:28.022Z,2.10
2022-12-27T19:02:03.201Z,2.70
2022-12-27T19:04:35.745Z,2.83
2022-12-27T19:07:12.659Z,2.30
2022-12-27T19:09:54.354Z,2.75
2022-12-27T19:12:37.233Z,2.85
2022-12-27T19:15:19.016Z,2.42
2022-12-27T19:17:54.662Z,2.80
2022-12-27T19:20:36.030Z,2.35
2022-12-27T19:23:20.677Z,2.37
2022-12-27T19:28:39.672Z,2.50
2022-12-27T19:31:21.221Z,2.17
2022-12-27T19:33:58.589Z,3.62
2022-12-27T19:36:35.178Z,2.70
2022-12-27T19:39:23.869Z,3.15
2022-12-27T19:42:01.060Z,2.50
2022-12-27T19:44:32.000Z,3.35
2022-12-27T19:47:04.366Z,4.47
2022-12-27T19:49:41.986Z,3.00
2022-12-27T19:52:21.772Z,3.02
2022-12-27T19:55:04.598Z,2.65
2022-12-27T19:57:38.764Z,3.22
2022-12-27T20:00:18.907Z,3.00
2022-12-27T20:02:51.551Z,3.05
2022-12-27T20:06:12.866Z,2.83
2022-12-27T20:07:58.196Z,2.87
2022-12-27T20:10:30.993Z,3.92
2022-12-27T20:13:03.507Z,2.80
2022-12-27T20:15:36.166Z,3.10
2022-12-27T20:18:08.645Z,3.30
2022-12-27T20:20:41.300Z,2.83
2022-12-27T20:23:13.974Z,3.05
2022-12-27T20:25:49.011Z,2.98
2022-12-27T20:28:22.025Z,3.02
2022-12-27T20:30:54.574Z,3.10
2022-12-27T20:33:27.039Z,3.40
2022-12-27T20:35:59.937Z,2.98
2022-12-27T20:38:32.662Z,2.67
2022-12-27T20:41:14.244Z,3.00
2022-12-27T20:43:46.736Z,3.42
2022-12-27T20:46:19.718Z,3.30
2022-12-27T20:48:53.386Z,2.75
2022-12-27T20:51:28.094Z,3.40
2022-12-27T20:56:35.473Z,2.90
2022-12-27T20:59:08.378Z,2.55
2022-12-27T21:01:40.977Z,3.30
2022-12-27T21:04:13.716Z,3.08
2022-12-27T21:06:47.618Z,3.15
2022-12-27T21:09:20.089Z,3.15
2022-12-27T21:11:53.945Z,2.40
2022-12-27T21:14:26.502Z,2.70
2022-12-27T21:16:59.687Z,2.67
2022-12-27T21:19:32.465Z,2.65
2022-12-27T21:22:04.963Z,2.72
2022-12-27T21:24:37.805Z,2.67
2022-12-27T21:27:10.618Z,2.98
2022-12-27T21:29:43.133Z,2.92
2022-12-27T21:32:16.023Z,2.77
2022-12-27T21:34:49.669Z,2.58
2022-12-27T21:37:22.764Z,3.40
2022-12-27T21:39:55.645Z,3.05
2022-12-27T21:42:28.130Z,3.37
2022-12-27T21:45:00.724Z,3.30
2022-12-27T21:47:33.449Z,3.20
2022-12-27T21:50:06.608Z,2.95
2022-12-27T21:52:39.704Z,3.12
2022-12-27T21:55:13.651Z,2.55
2022-12-27T21:57:46.185Z,3.42
2022-12-27T22:00:18.934Z,2.85
2022-12-27T22:02:51.864Z,2.55
2022-12-27T22:05:24.333Z,3.00
2022-12-27T22:07:57.765Z,3.02
2022-12-27T22:10:30.183Z,2.90
2022-12-27T22:13:04.022Z,2.65
2022-12-27T22:15:36.559Z,2.87
2022-12-27T22:18:09.160Z,2.75
2022-12-27T22:20:46.749Z,2.87
2022-12-27T22:23:15.973Z,2.50
2022-12-27T22:25:48.580Z,2.87
2022-12-27T22:28:21.229Z,3.20
2022-12-27T22:30:53.832Z,2.95
2022-12-27T22:33:26.755Z,3.00
2022-12-27T22:36:08.348Z,3.17
2022-12-27T22:38:41.008Z,3.27
2022-12-27T22:41:19.719Z,3.37
2022-12-27T22:43:56.627Z,3.00
2022-12-27T22:46:51.014Z,3.12
2022-12-27T22:49:05.744Z,3.10
2022-12-27T22:51:39.303Z,3.22
2022-12-27T22:54:11.672Z,3.65
2022-12-27T22:56:44.239Z,3.40
2022-12-27T22:59:18.573Z,3.65
2022-12-27T23:01:51.091Z,3.33
2022-12-27T23:04:23.923Z,3.65
2022-12-27T23:06:56.570Z,3.70
2022-12-27T23:09:29.935Z,3.50
2022-12-27T23:12:02.692Z,3.47
2022-12-27T23:14:35.276Z,3.60
2022-12-27T23:17:07.948Z,3.30
2022-12-27T23:19:40.335Z,3.52
2022-12-27T23:22:12.656Z,2.95
2022-12-27T23:24:45.181Z,3.77
2022-12-27T23:27:17.485Z,3.95
2022-12-27T23:29:49.858Z,3.40
2022-12-27T23:32:22.250Z,3.70
2022-12-27T23:34:54.766Z,3.83
2022-12-27T23:37:27.165Z,4.20
2022-12-27T23:39:59.658Z,3.12
2022-12-27T23:42:31.942Z,3.67
2022-12-27T23:45:04.766Z,3.52
2022-12-27T23:47:37.491Z,3.90
2022-12-27T23:50:13.280Z,4.15
2022-12-27T23:52:45.803Z,3.52
2022-12-27T23:55:18.155Z,3.62
